sensor_id;sensor_type;location;lat;lon;timestamp;temperature;humidity
7014;DHT22;3547;50.774;12.918;2023-04-03T00:00:29;2.40;99.90
7014;DHT22;3547;50.774;12.918;2023-04-03T00:02:55;2.50;99.90
7014;DHT22;3547;50.774;12.918;2023-04-03T00:05:22;2.50;99.90
7014;DHT22;3547;50.774;12.918;2023-04-03T00:07:48;2.40;99.90
7014;DHT22;3547;50.774;12.918;2023-04-03T00:10:16;2.40;99.90
7014;DHT22;3547;50.774;12.918;2023-04-03T00:12:42;2.30;99.90
7014;DHT22;3547;50.774;12.918;2023-04-03T00:15:08;2.30;99.90
7014;DHT22;3547;50.774;12.918;2023-04-03T00:17:35;2.20;99.90
7014;DHT22;3547;50.774;12.918;2023-04-03T00:20:02;2.20;99.90
7014;DHT22;3547;50.774;12.918;2023-04-03T00:22:28;2.20;99.90
7014;DHT22;3547;50.774;12.918;2023-04-03T00:24:55;2.10;99.90
7014;DHT22;3547;50.774;12.918;2023-04-03T00:27:21;2.10;99.90
7014;DHT22;3547;50.774;12.918;2023-04-03T00:29:47;2.00;99.90
7014;DHT22;3547;50.774;12.918;2023-04-03T00:32:13;2.00;99.90
7014;DHT22;3547;50.774;12.918;2023-04-03T00:34:40;1.90;99.90
7014;DHT22;3547;50.774;12.918;2023-04-03T00:37:06;1.80;99.90
7014;DHT22;3547;50.774;12.918;2023-04-03T00:39:32;1.80;99.90
7014;DHT22;3547;50.774;12.918;2023-04-03T00:41:58;1.80;99.90
7014;DHT22;3547;50.774;12.918;2023-04-03T00:47:00;1.80;99.90
7014;DHT22;3547;50.774;12.918;2023-04-03T00:49:28;1.70;99.90
7014;DHT22;3547;50.774;12.918;2023-04-03T00:51:55;1.80;99.90
7014;DHT22;3547;50.774;12.918;2023-04-03T00:54:22;1.80;99.90
7014;DHT22;3547;50.774;12.918;2023-04-03T00:56:51;1.80;99.90
7014;DHT22;3547;50.774;12.918;2023-04-03T00:59:23;1.80;99.90
7014;DHT22;3547;50.774;12.918;2023-04-03T01:01:53;1.80;99.90
7014;DHT22;3547;50.774;12.918;2023-04-03T01:07:04;1.70;99.90
7014;DHT22;3547;50.774;12.918;2023-04-03T01:09:31;1.70;99.90
7014;DHT22;3547;50.774;12.918;2023-04-03T01:12:23;1.70;99.90
7014;DHT22;3547;50.774;12.918;2023-04-03T01:14:52;1.60;99.90
7014;DHT22;3547;50.774;12.918;2023-04-03T01:25:48;1.50;99.90
7014;DHT22;3547;50.774;12.918;2023-04-03T01:28:27;1.50;99.90
7014;DHT22;3547;50.774;12.918;2023-04-03T01:31:18;1.50;99.90
7014;DHT22;3547;50.774;12.918;2023-04-03T01:33:46;1.40;99.90
7014;DHT22;3547;50.774;12.918;2023-04-03T01:36:19;1.40;99.90
7014;DHT22;3547;50.774;12.918;2023-04-03T01:38:47;1.40;99.90
7014;DHT22;3547;50.774;12.918;2023-04-03T01:41:13;1.30;99.90
7014;DHT22;3547;50.774;12.918;2023-04-03T01:43:39;1.30;99.90
7014;DHT22;3547;50.774;12.918;2023-04-03T01:46:05;1.30;99.90
7014;DHT22;3547;50.774;12.918;2023-04-03T01:48:31;1.20;99.90
7014;DHT22;3547;50.774;12.918;2023-04-03T01:50:58;1.20;99.90
7014;DHT22;3547;50.774;12.918;2023-04-03T01:53:24;1.20;99.90
7014;DHT22;3547;50.774;12.918;2023-04-03T01:55:50;1.20;99.90
7014;DHT22;3547;50.774;12.918;2023-04-03T01:58:16;1.00;99.90
7014;DHT22;3547;50.774;12.918;2023-04-03T02:00:42;1.10;99.90
7014;DHT22;3547;50.774;12.918;2023-04-03T02:03:09;1.10;99.90
7014;DHT22;3547;50.774;12.918;2023-04-03T02:05:35;1.10;99.90
7014;DHT22;3547;50.774;12.918;2023-04-03T02:08:01;1.00;99.90
7014;DHT22;3547;50.774;12.918;2023-04-03T02:10:27;1.00;99.90
7014;DHT22;3547;50.774;12.918;2023-04-03T02:12:53;0.90;99.90
7014;DHT22;3547;50.774;12.918;2023-04-03T02:15:19;0.90;99.90
7014;DHT22;3547;50.774;12.918;2023-04-03T02:17:46;0.90;99.90
7014;DHT22;3547;50.774;12.918;2023-04-03T02:20:12;0.90;99.90
7014;DHT22;3547;50.774;12.918;2023-04-03T02:22:38;0.80;99.90
7014;DHT22;3547;50.774;12.918;2023-04-03T02:25:05;0.70;99.90
7014;DHT22;3547;50.774;12.918;2023-04-03T02:27:31;0.70;99.90
7014;DHT22;3547;50.774;12.918;2023-04-03T02:29:57;0.80;99.90
7014;DHT22;3547;50.774;12.918;2023-04-03T02:32:23;0.70;99.90
7014;DHT22;3547;50.774;12.918;2023-04-03T02:34:50;0.70;99.90
7014;DHT22;3547;50.774;12.918;2023-04-03T02:37:16;0.80;99.90
7014;DHT22;3547;50.774;12.918;2023-04-03T02:39:42;0.70;99.90
7014;DHT22;3547;50.774;12.918;2023-04-03T02:42:08;0.70;99.90
7014;DHT22;3547;50.774;12.918;2023-04-03T02:44:34;0.70;99.90
7014;DHT22;3547;50.774;12.918;2023-04-03T02:47:01;0.70;99.90
7014;DHT22;3547;50.774;12.918;2023-04-03T02:49:28;0.60;99.90
7014;DHT22;3547;50.774;12.918;2023-04-03T02:51:54;0.60;99.90
7014;DHT22;3547;50.774;12.918;2023-04-03T02:54:20;0.60;99.90
7014;DHT22;3547;50.774;12.918;2023-04-03T02:56:49;0.60;99.90
7014;DHT22;3547;50.774;12.918;2023-04-03T02:59:15;0.50;99.90
7014;DHT22;3547;50.774;12.918;2023-04-03T03:01:42;0.40;99.90
7014;DHT22;3547;50.774;12.918;2023-04-03T03:04:08;0.40;99.90
7014;DHT22;3547;50.774;12.918;2023-04-03T03:06:34;0.30;99.90
7014;DHT22;3547;50.774;12.918;2023-04-03T03:09:00;0.30;99.90
7014;DHT22;3547;50.774;12.918;2023-04-03T03:11:26;0.30;99.90
7014;DHT22;3547;50.774;12.918;2023-04-03T03:13:52;0.20;99.90
7014;DHT22;3547;50.774;12.918;2023-04-03T03:16:19;0.20;99.90
7014;DHT22;3547;50.774;12.918;2023-04-03T03:18:45;0.20;99.90
7014;DHT22;3547;50.774;12.918;2023-04-03T03:21:11;0.20;99.90
7014;DHT22;3547;50.774;12.918;2023-04-03T03:23:37;0.10;99.90
7014;DHT22;3547;50.774;12.918;2023-04-03T03:26:09;0.10;99.90
7014;DHT22;3547;50.774;12.918;2023-04-03T03:28:36;0.10;99.90
7014;DHT22;3547;50.774;12.918;2023-04-03T03:31:04;0.10;99.90
7014;DHT22;3547;50.774;12.918;2023-04-03T03:33:31;0.00;99.90
7014;DHT22;3547;50.774;12.918;2023-04-03T03:35:57;0.00;99.90
7014;DHT22;3547;50.774;12.918;2023-04-03T03:38:24;0.00;99.90
7014;DHT22;3547;50.774;12.918;2023-04-03T03:40:51;0.00;99.90
7014;DHT22;3547;50.774;12.918;2023-04-03T03:43:18;0.00;99.90
7014;DHT22;3547;50.774;12.918;2023-04-03T03:45:44;-0.10;99.90
7014;DHT22;3547;50.774;12.918;2023-04-03T03:48:12;-0.10;99.90
7014;DHT22;3547;50.774;12.918;2023-04-03T03:50:38;-0.10;99.90
7014;DHT22;3547;50.774;12.918;2023-04-03T03:53:04;-0.20;99.90
7014;DHT22;3547;50.774;12.918;2023-04-03T03:55:31;-0.20;99.90
7014;DHT22;3547;50.774;12.918;2023-04-03T03:57:57;-0.20;99.90
7014;DHT22;3547;50.774;12.918;2023-04-03T04:00:23;-0.20;99.90
7014;DHT22;3547;50.774;12.918;2023-04-03T04:02:49;-0.20;99.90
7014;DHT22;3547;50.774;12.918;2023-04-03T04:05:15;-0.20;99.90
7014;DHT22;3547;50.774;12.918;2023-04-03T04:07:42;-0.30;99.90
7014;DHT22;3547;50.774;12.918;2023-04-03T04:10:08;-0.30;99.90
7014;DHT22;3547;50.774;12.918;2023-04-03T04:12:34;-0.40;99.90
7014;DHT22;3547;50.774;12.918;2023-04-03T04:15:02;-0.50;99.90
7014;DHT22;3547;50.774;12.918;2023-04-03T04:17:28;-0.40;99.90
7014;DHT22;3547;50.774;12.918;2023-04-03T04:19:54;-0.40;99.90
7014;DHT22;3547;50.774;12.918;2023-04-03T04:22:20;-0.40;99.90
7014;DHT22;3547;50.774;12.918;2023-04-03T04:24:46;-0.50;99.90
7014;DHT22;3547;50.774;12.918;2023-04-03T04:27:12;-0.50;99.90
7014;DHT22;3547;50.774;12.918;2023-04-03T04:29:38;-0.60;99.90
7014;DHT22;3547;50.774;12.918;2023-04-03T04:32:05;-0.60;99.90
7014;DHT22;3547;50.774;12.918;2023-04-03T04:34:31;-0.80;99.90
7014;DHT22;3547;50.774;12.918;2023-04-03T04:36:57;-0.80;99.90
7014;DHT22;3547;50.774;12.918;2023-04-03T04:39:23;-0.80;99.90
7014;DHT22;3547;50.774;12.918;2023-04-03T04:41:49;-0.90;99.90
7014;DHT22;3547;50.774;12.918;2023-04-03T04:44:16;-0.90;99.90
7014;DHT22;3547;50.774;12.918;2023-04-03T04:46:42;-0.90;99.90
7014;DHT22;3547;50.774;12.918;2023-04-03T04:49:08;-0.90;99.90
7014;DHT22;3547;50.774;12.918;2023-04-03T04:51:34;-1.00;99.90
7014;DHT22;3547;50.774;12.918;2023-04-03T04:54:00;-1.10;99.90
7014;DHT22;3547;50.774;12.918;2023-04-03T04:56:26;-1.10;99.90
7014;DHT22;3547;50.774;12.918;2023-04-03T04:58:53;-1.10;99.90
7014;DHT22;3547;50.774;12.918;2023-04-03T05:01:19;-1.20;99.90
7014;DHT22;3547;50.774;12.918;2023-04-03T05:03:45;-1.10;99.90
7014;DHT22;3547;50.774;12.918;2023-04-03T05:06:31;-1.10;99.90
7014;DHT22;3547;50.774;12.918;2023-04-03T05:08:59;-1.20;99.90
7014;DHT22;3547;50.774;12.918;2023-04-03T05:11:25;-1.20;99.90
7014;DHT22;3547;50.774;12.918;2023-04-03T05:13:51;-1.10;99.90
7014;DHT22;3547;50.774;12.918;2023-04-03T05:16:17;-1.20;99.90
7014;DHT22;3547;50.774;12.918;2023-04-03T05:18:43;-1.20;99.90
7014;DHT22;3547;50.774;12.918;2023-04-03T05:21:09;-1.20;99.90
7014;DHT22;3547;50.774;12.918;2023-04-03T05:23:35;-1.10;99.90
7014;DHT22;3547;50.774;12.918;2023-04-03T05:26:02;-1.10;99.90
7014;DHT22;3547;50.774;12.918;2023-04-03T05:28:28;-1.00;99.90
7014;DHT22;3547;50.774;12.918;2023-04-03T05:30:55;-1.00;99.90
7014;DHT22;3547;50.774;12.918;2023-04-03T05:33:22;-0.90;99.90
7014;DHT22;3547;50.774;12.918;2023-04-03T05:35:48;-0.80;99.90
7014;DHT22;3547;50.774;12.918;2023-04-03T05:38:15;-0.70;99.90
7014;DHT22;3547;50.774;12.918;2023-04-03T05:40:41;-0.60;99.90
7014;DHT22;3547;50.774;12.918;2023-04-03T05:43:07;-0.60;99.90
7014;DHT22;3547;50.774;12.918;2023-04-03T05:45:33;-0.40;99.90
7014;DHT22;3547;50.774;12.918;2023-04-03T05:47:59;-0.40;99.90
7014;DHT22;3547;50.774;12.918;2023-04-03T05:50:26;-0.40;99.90
7014;DHT22;3547;50.774;12.918;2023-04-03T05:52:53;-0.40;99.90
7014;DHT22;3547;50.774;12.918;2023-04-03T05:55:21;-0.20;99.90
7014;DHT22;3547;50.774;12.918;2023-04-03T05:57:47;-0.20;99.90
7014;DHT22;3547;50.774;12.918;2023-04-03T06:00:14;-0.30;99.90
7014;DHT22;3547;50.774;12.918;2023-04-03T06:02:42;-0.20;99.90
7014;DHT22;3547;50.774;12.918;2023-04-03T06:05:09;-0.20;99.90
7014;DHT22;3547;50.774;12.918;2023-04-03T06:07:37;-0.20;99.90
7014;DHT22;3547;50.774;12.918;2023-04-03T06:10:04;-0.20;99.90
7014;DHT22;3547;50.774;12.918;2023-04-03T06:12:31;-0.20;99.90
7014;DHT22;3547;50.774;12.918;2023-04-03T06:14:57;-0.10;99.90
7014;DHT22;3547;50.774;12.918;2023-04-03T06:17:23;0.00;99.90
7014;DHT22;3547;50.774;12.918;2023-04-03T06:19:50;0.10;99.90
7014;DHT22;3547;50.774;12.918;2023-04-03T06:22:16;0.10;99.90
7014;DHT22;3547;50.774;12.918;2023-04-03T06:24:42;0.20;99.90
7014;DHT22;3547;50.774;12.918;2023-04-03T06:27:10;0.30;99.90
7014;DHT22;3547;50.774;12.918;2023-04-03T06:29:37;0.40;99.90
7014;DHT22;3547;50.774;12.918;2023-04-03T06:32:03;0.40;99.90
7014;DHT22;3547;50.774;12.918;2023-04-03T06:34:29;0.40;99.90
7014;DHT22;3547;50.774;12.918;2023-04-03T06:36:55;0.40;99.90
7014;DHT22;3547;50.774;12.918;2023-04-03T06:39:22;0.50;99.90
7014;DHT22;3547;50.774;12.918;2023-04-03T06:41:49;0.40;99.90
7014;DHT22;3547;50.774;12.918;2023-04-03T06:44:16;0.40;99.90
7014;DHT22;3547;50.774;12.918;2023-04-03T06:46:43;0.50;99.90
7014;DHT22;3547;50.774;12.918;2023-04-03T06:49:10;0.60;99.90
7014;DHT22;3547;50.774;12.918;2023-04-03T06:51:37;0.70;99.90
7014;DHT22;3547;50.774;12.918;2023-04-03T06:54:04;0.70;99.90
7014;DHT22;3547;50.774;12.918;2023-04-03T06:56:32;0.80;99.90
7014;DHT22;3547;50.774;12.918;2023-04-03T06:58:58;0.80;99.90
7014;DHT22;3547;50.774;12.918;2023-04-03T07:01:26;0.80;99.90
7014;DHT22;3547;50.774;12.918;2023-04-03T07:03:54;0.80;99.90
7014;DHT22;3547;50.774;12.918;2023-04-03T07:06:21;0.70;99.90
7014;DHT22;3547;50.774;12.918;2023-04-03T07:08:47;0.90;99.90
7014;DHT22;3547;50.774;12.918;2023-04-03T07:11:15;1.10;99.90
7014;DHT22;3547;50.774;12.918;2023-04-03T07:13:41;1.20;99.90
7014;DHT22;3547;50.774;12.918;2023-04-03T07:16:08;1.20;99.90
7014;DHT22;3547;50.774;12.918;2023-04-03T07:18:35;1.30;99.90
7014;DHT22;3547;50.774;12.918;2023-04-03T07:21:02;1.50;99.90
7014;DHT22;3547;50.774;12.918;2023-04-03T07:23:28;1.60;99.90
7014;DHT22;3547;50.774;12.918;2023-04-03T07:25:55;1.70;99.90
7014;DHT22;3547;50.774;12.918;2023-04-03T07:28:22;1.70;99.90
7014;DHT22;3547;50.774;12.918;2023-04-03T07:31:14;1.30;99.90
7014;DHT22;3547;50.774;12.918;2023-04-03T07:33:40;1.50;99.90
7014;DHT22;3547;50.774;12.918;2023-04-03T07:36:08;1.60;99.90
7014;DHT22;3547;50.774;12.918;2023-04-03T07:38:35;1.80;99.90
7014;DHT22;3547;50.774;12.918;2023-04-03T07:41:03;2.00;99.90
7014;DHT22;3547;50.774;12.918;2023-04-03T07:43:29;2.10;99.90
7014;DHT22;3547;50.774;12.918;2023-04-03T07:49:18;2.00;99.90
7014;DHT22;3547;50.774;12.918;2023-04-03T07:51:45;2.00;99.90
7014;DHT22;3547;50.774;12.918;2023-04-03T07:54:11;2.10;99.90
7014;DHT22;3547;50.774;12.918;2023-04-03T07:56:37;2.10;99.90
7014;DHT22;3547;50.774;12.918;2023-04-03T07:59:03;2.10;99.90
7014;DHT22;3547;50.774;12.918;2023-04-03T08:01:29;2.10;99.90
7014;DHT22;3547;50.774;12.918;2023-04-03T08:03:58;1.80;99.90
7014;DHT22;3547;50.774;12.918;2023-04-03T08:06:24;2.10;99.90
7014;DHT22;3547;50.774;12.918;2023-04-03T08:08:51;2.40;99.90
7014;DHT22;3547;50.774;12.918;2023-04-03T08:11:17;2.60;99.90
7014;DHT22;3547;50.774;12.918;2023-04-03T08:13:44;2.70;99.90
7014;DHT22;3547;50.774;12.918;2023-04-03T08:16:16;2.60;99.90
7014;DHT22;3547;50.774;12.918;2023-04-03T08:18:44;2.70;99.90
7014;DHT22;3547;50.774;12.918;2023-04-03T08:21:12;2.70;99.90
7014;DHT22;3547;50.774;12.918;2023-04-03T08:23:39;2.80;99.90
7014;DHT22;3547;50.774;12.918;2023-04-03T08:26:09;3.00;99.90
7014;DHT22;3547;50.774;12.918;2023-04-03T08:28:35;2.70;99.90
7014;DHT22;3547;50.774;12.918;2023-04-03T08:31:11;2.70;99.90
7014;DHT22;3547;50.774;12.918;2023-04-03T08:33:38;3.00;99.90
7014;DHT22;3547;50.774;12.918;2023-04-03T08:36:07;3.20;99.90
7014;DHT22;3547;50.774;12.918;2023-04-03T08:38:34;3.50;99.90
7014;DHT22;3547;50.774;12.918;2023-04-03T08:47:17;4.00;99.90
7014;DHT22;3547;50.774;12.918;2023-04-03T08:51:51;4.20;99.90
7014;DHT22;3547;50.774;12.918;2023-04-03T08:54:30;4.30;99.90
7014;DHT22;3547;50.774;12.918;2023-04-03T08:57:01;4.20;99.90
7014;DHT22;3547;50.774;12.918;2023-04-03T08:59:32;4.10;99.90
7014;DHT22;3547;50.774;12.918;2023-04-03T09:02:03;4.30;99.90
7014;DHT22;3547;50.774;12.918;2023-04-03T09:04:32;4.70;99.90
7014;DHT22;3547;50.774;12.918;2023-04-03T09:07:07;4.80;99.90
7014;DHT22;3547;50.774;12.918;2023-04-03T09:09:44;5.00;99.90
7014;DHT22;3547;50.774;12.918;2023-04-03T09:12:24;4.90;99.90
7014;DHT22;3547;50.774;12.918;2023-04-03T09:22:41;4.50;99.90
7014;DHT22;3547;50.774;12.918;2023-04-03T09:25:37;4.00;99.90
7014;DHT22;3547;50.774;12.918;2023-04-03T09:28:04;4.30;99.90
7014;DHT22;3547;50.774;12.918;2023-04-03T09:30:36;4.30;99.90
7014;DHT22;3547;50.774;12.918;2023-04-03T09:33:04;4.20;99.90
7014;DHT22;3547;50.774;12.918;2023-04-03T09:35:32;4.50;99.90
7014;DHT22;3547;50.774;12.918;2023-04-03T09:37:59;5.10;99.90
7014;DHT22;3547;50.774;12.918;2023-04-03T09:43:00;5.40;99.90
7014;DHT22;3547;50.774;12.918;2023-04-03T09:45:35;5.20;99.90
7014;DHT22;3547;50.774;12.918;2023-04-03T09:48:12;5.10;99.90
7014;DHT22;3547;50.774;12.918;2023-04-03T09:53:38;4.90;99.90
7014;DHT22;3547;50.774;12.918;2023-04-03T09:56:25;5.40;99.90
7014;DHT22;3547;50.774;12.918;2023-04-03T10:01:39;5.10;99.90
7014;DHT22;3547;50.774;12.918;2023-04-03T10:04:19;5.10;99.90
7014;DHT22;3547;50.774;12.918;2023-04-03T10:06:51;5.30;99.90
7014;DHT22;3547;50.774;12.918;2023-04-03T10:09:27;5.70;99.90
7014;DHT22;3547;50.774;12.918;2023-04-03T10:14:40;5.60;99.90
7014;DHT22;3547;50.774;12.918;2023-04-03T10:25:29;5.20;99.90
7014;DHT22;3547;50.774;12.918;2023-04-03T10:28:10;5.70;99.90
7014;DHT22;3547;50.774;12.918;2023-04-03T10:36:07;5.30;99.90
7014;DHT22;3547;50.774;12.918;2023-04-03T10:38:40;5.70;99.90
7014;DHT22;3547;50.774;12.918;2023-04-03T10:41:20;6.60;99.90
7014;DHT22;3547;50.774;12.918;2023-04-03T10:46:53;7.40;99.90
7014;DHT22;3547;50.774;12.918;2023-04-03T10:52:42;8.30;99.90
7014;DHT22;3547;50.774;12.918;2023-04-03T10:55:21;7.90;99.90
7014;DHT22;3547;50.774;12.918;2023-04-03T10:57:50;7.50;99.90
7014;DHT22;3547;50.774;12.918;2023-04-03T11:00:19;7.20;99.90
7014;DHT22;3547;50.774;12.918;2023-04-03T11:05:34;6.60;99.90
7014;DHT22;3547;50.774;12.918;2023-04-03T11:08:12;5.90;99.90
7014;DHT22;3547;50.774;12.918;2023-04-03T11:10:45;5.90;99.90
7014;DHT22;3547;50.774;12.918;2023-04-03T11:13:19;5.70;99.90
7014;DHT22;3547;50.774;12.918;2023-04-03T11:15:47;5.90;99.90
7014;DHT22;3547;50.774;12.918;2023-04-03T11:18:14;6.00;99.90
7014;DHT22;3547;50.774;12.918;2023-04-03T11:20:50;6.70;99.90
7014;DHT22;3547;50.774;12.918;2023-04-03T11:23:25;7.30;99.90
7014;DHT22;3547;50.774;12.918;2023-04-03T11:26:01;7.90;99.90
7014;DHT22;3547;50.774;12.918;2023-04-03T11:28:30;8.00;99.90
7014;DHT22;3547;50.774;12.918;2023-04-03T11:37:31;7.60;99.90
7014;DHT22;3547;50.774;12.918;2023-04-03T11:40:13;7.20;99.90
7014;DHT22;3547;50.774;12.918;2023-04-03T11:42:52;7.10;99.90
7014;DHT22;3547;50.774;12.918;2023-04-03T11:47:56;6.30;99.90
7014;DHT22;3547;50.774;12.918;2023-04-03T11:50:44;6.30;99.90
7014;DHT22;3547;50.774;12.918;2023-04-03T11:55:44;6.10;99.90
7014;DHT22;3547;50.774;12.918;2023-04-03T11:58:16;5.20;97.10
7014;DHT22;3547;50.774;12.918;2023-04-03T12:03:57;6.50;99.90
7014;DHT22;3547;50.774;12.918;2023-04-03T12:08:58;5.60;99.90
7014;DHT22;3547;50.774;12.918;2023-04-03T12:11:35;5.50;99.90
7014;DHT22;3547;50.774;12.918;2023-04-03T12:14:04;5.50;99.90
7014;DHT22;3547;50.774;12.918;2023-04-03T12:16:44;5.50;99.90
7014;DHT22;3547;50.774;12.918;2023-04-03T12:27:01;5.90;99.90
7014;DHT22;3547;50.774;12.918;2023-04-03T12:29:33;6.60;99.90
7014;DHT22;3547;50.774;12.918;2023-04-03T12:35:28;6.40;99.90
7014;DHT22;3547;50.774;12.918;2023-04-03T12:40:45;6.50;99.90
7014;DHT22;3547;50.774;12.918;2023-04-03T12:48:28;6.80;99.90
7014;DHT22;3547;50.774;12.918;2023-04-03T12:50:56;7.50;99.90
7014;DHT22;3547;50.774;12.918;2023-04-03T12:53:42;7.70;99.90
7014;DHT22;3547;50.774;12.918;2023-04-03T12:56:24;7.50;99.90
7014;DHT22;3547;50.774;12.918;2023-04-03T12:58:52;7.40;99.90
7014;DHT22;3547;50.774;12.918;2023-04-03T13:01:22;7.00;99.90
7014;DHT22;3547;50.774;12.918;2023-04-03T13:03:53;6.90;96.20
7014;DHT22;3547;50.774;12.918;2023-04-03T13:09:42;6.10;82.80
7014;DHT22;3547;50.774;12.918;2023-04-03T13:12:14;6.30;99.90
7014;DHT22;3547;50.774;12.918;2023-04-03T13:14:54;6.60;99.90
7014;DHT22;3547;50.774;12.918;2023-04-03T13:17:20;6.70;99.90
7014;DHT22;3547;50.774;12.918;2023-04-03T13:19:47;6.90;99.90
7014;DHT22;3547;50.774;12.918;2023-04-03T13:22:33;7.20;99.90
7014;DHT22;3547;50.774;12.918;2023-04-03T13:25:07;7.30;99.90
7014;DHT22;3547;50.774;12.918;2023-04-03T13:27:34;6.90;96.90
7014;DHT22;3547;50.774;12.918;2023-04-03T13:30:02;6.30;97.90
7014;DHT22;3547;50.774;12.918;2023-04-03T13:32:31;6.30;99.90
7014;DHT22;3547;50.774;12.918;2023-04-03T13:34:59;6.20;96.10
7014;DHT22;3547;50.774;12.918;2023-04-03T13:37:31;6.30;96.70
7014;DHT22;3547;50.774;12.918;2023-04-03T13:40:09;6.60;99.90
7014;DHT22;3547;50.774;12.918;2023-04-03T13:42:39;7.20;99.90
7014;DHT22;3547;50.774;12.918;2023-04-03T13:47:42;7.50;99.90
7014;DHT22;3547;50.774;12.918;2023-04-03T13:50:20;7.40;99.90
7014;DHT22;3547;50.774;12.918;2023-04-03T13:56:16;6.70;87.80
7014;DHT22;3547;50.774;12.918;2023-04-03T13:58:54;6.60;97.50
7014;DHT22;3547;50.774;12.918;2023-04-03T14:01:22;6.40;95.30
7014;DHT22;3547;50.774;12.918;2023-04-03T14:03:56;6.50;98.10
7014;DHT22;3547;50.774;12.918;2023-04-03T14:06:23;6.60;99.60
7014;DHT22;3547;50.774;12.918;2023-04-03T14:08:49;6.60;95.30
7014;DHT22;3547;50.774;12.918;2023-04-03T14:11:18;6.60;98.50
7014;DHT22;3547;50.774;12.918;2023-04-03T14:13:46;6.60;99.90
7014;DHT22;3547;50.774;12.918;2023-04-03T14:16:19;6.40;94.70
7014;DHT22;3547;50.774;12.918;2023-04-03T14:18:46;6.70;97.50
7014;DHT22;3547;50.774;12.918;2023-04-03T14:21:14;6.90;98.30
7014;DHT22;3547;50.774;12.918;2023-04-03T14:23:40;7.00;99.90
7014;DHT22;3547;50.774;12.918;2023-04-03T14:26:17;6.80;94.30
7014;DHT22;3547;50.774;12.918;2023-04-03T14:28:45;6.50;94.90
7014;DHT22;3547;50.774;12.918;2023-04-03T14:31:13;6.50;94.40
7014;DHT22;3547;50.774;12.918;2023-04-03T14:33:39;6.30;94.20
7014;DHT22;3547;50.774;12.918;2023-04-03T14:36:29;6.20;95.60
7014;DHT22;3547;50.774;12.918;2023-04-03T14:38:59;6.20;94.20
7014;DHT22;3547;50.774;12.918;2023-04-03T14:41:26;6.00;95.00
7014;DHT22;3547;50.774;12.918;2023-04-03T14:43:53;6.00;93.60
7014;DHT22;3547;50.774;12.918;2023-04-03T14:46:29;6.10;93.50
7014;DHT22;3547;50.774;12.918;2023-04-03T14:48:56;6.10;95.00
7014;DHT22;3547;50.774;12.918;2023-04-03T14:51:23;5.80;92.70
7014;DHT22;3547;50.774;12.918;2023-04-03T14:53:49;5.50;89.90
7014;DHT22;3547;50.774;12.918;2023-04-03T14:56:22;5.40;90.70
7014;DHT22;3547;50.774;12.918;2023-04-03T14:58:54;5.20;86.20
7014;DHT22;3547;50.774;12.918;2023-04-03T15:01:21;5.10;91.20
7014;DHT22;3547;50.774;12.918;2023-04-03T15:03:47;5.30;94.50
7014;DHT22;3547;50.774;12.918;2023-04-03T15:06:15;5.20;92.00
7014;DHT22;3547;50.774;12.918;2023-04-03T15:08:42;5.30;92.40
7014;DHT22;3547;50.774;12.918;2023-04-03T15:11:10;5.30;93.90
7014;DHT22;3547;50.774;12.918;2023-04-03T15:13:37;5.10;90.10
7014;DHT22;3547;50.774;12.918;2023-04-03T15:16:05;4.80;83.40
7014;DHT22;3547;50.774;12.918;2023-04-03T15:18:54;4.80;91.60
7014;DHT22;3547;50.774;12.918;2023-04-03T15:21:20;4.80;89.10
7014;DHT22;3547;50.774;12.918;2023-04-03T15:23:46;4.70;90.90
7014;DHT22;3547;50.774;12.918;2023-04-03T15:26:12;4.60;90.00
7014;DHT22;3547;50.774;12.918;2023-04-03T15:31:14;4.50;88.80
7014;DHT22;3547;50.774;12.918;2023-04-03T15:33:40;4.40;83.50
7014;DHT22;3547;50.774;12.918;2023-04-03T15:36:07;4.50;85.70
7014;DHT22;3547;50.774;12.918;2023-04-03T15:38:34;4.50;90.20
7014;DHT22;3547;50.774;12.918;2023-04-03T15:41:00;4.50;89.70
7014;DHT22;3547;50.774;12.918;2023-04-03T15:43:27;4.40;90.10
7014;DHT22;3547;50.774;12.918;2023-04-03T15:49:16;4.40;86.90
7014;DHT22;3547;50.774;12.918;2023-04-03T15:51:45;4.20;87.50
7014;DHT22;3547;50.774;12.918;2023-04-03T15:56:47;3.80;90.50
7014;DHT22;3547;50.774;12.918;2023-04-03T15:59:20;3.90;82.10
7014;DHT22;3547;50.774;12.918;2023-04-03T16:01:46;3.90;87.20
7014;DHT22;3547;50.774;12.918;2023-04-03T16:04:13;3.90;83.30
7014;DHT22;3547;50.774;12.918;2023-04-03T16:06:41;4.00;89.40
7014;DHT22;3547;50.774;12.918;2023-04-03T16:09:09;4.10;88.60
7014;DHT22;3547;50.774;12.918;2023-04-03T16:11:36;4.10;81.60
7014;DHT22;3547;50.774;12.918;2023-04-03T16:14:06;4.00;82.30
7014;DHT22;3547;50.774;12.918;2023-04-03T16:16:32;4.00;81.80
7014;DHT22;3547;50.774;12.918;2023-04-03T16:26:46;3.70;75.80
7014;DHT22;3547;50.774;12.918;2023-04-03T16:29:12;3.60;79.90
7014;DHT22;3547;50.774;12.918;2023-04-03T16:31:39;3.50;72.80
7014;DHT22;3547;50.774;12.918;2023-04-03T16:34:05;3.20;65.10
7014;DHT22;3547;50.774;12.918;2023-04-03T16:36:31;3.20;65.60
7014;DHT22;3547;50.774;12.918;2023-04-03T16:38:59;3.10;61.80
7014;DHT22;3547;50.774;12.918;2023-04-03T16:41:25;3.20;66.10
7014;DHT22;3547;50.774;12.918;2023-04-03T16:43:51;3.10;69.40
7014;DHT22;3547;50.774;12.918;2023-04-03T16:46:17;2.90;58.30
7014;DHT22;3547;50.774;12.918;2023-04-03T16:48:43;2.70;63.00
7014;DHT22;3547;50.774;12.918;2023-04-03T16:51:12;2.70;55.70
7014;DHT22;3547;50.774;12.918;2023-04-03T16:56:29;2.70;53.70
7014;DHT22;3547;50.774;12.918;2023-04-03T16:58:56;2.70;58.80
7014;DHT22;3547;50.774;12.918;2023-04-03T17:01:22;2.60;65.10
7014;DHT22;3547;50.774;12.918;2023-04-03T17:03:49;2.60;70.00
7014;DHT22;3547;50.774;12.918;2023-04-03T17:06:20;2.60;65.00
7014;DHT22;3547;50.774;12.918;2023-04-03T17:08:48;2.50;58.40
7014;DHT22;3547;50.774;12.918;2023-04-03T17:11:16;2.50;65.80
7014;DHT22;3547;50.774;12.918;2023-04-03T17:13:42;2.50;64.70
7014;DHT22;3547;50.774;12.918;2023-04-03T17:16:11;2.40;68.50
7014;DHT22;3547;50.774;12.918;2023-04-03T17:18:39;2.50;69.50
7014;DHT22;3547;50.774;12.918;2023-04-03T17:21:05;2.40;63.60
7014;DHT22;3547;50.774;12.918;2023-04-03T17:23:34;2.50;69.10
7014;DHT22;3547;50.774;12.918;2023-04-03T17:26:05;2.40;71.00
7014;DHT22;3547;50.774;12.918;2023-04-03T17:31:07;2.40;63.60
7014;DHT22;3547;50.774;12.918;2023-04-03T17:33:33;2.40;68.40
7014;DHT22;3547;50.774;12.918;2023-04-03T17:36:01;2.40;63.70
7014;DHT22;3547;50.774;12.918;2023-04-03T17:38:30;2.30;64.60
7014;DHT22;3547;50.774;12.918;2023-04-03T17:40:57;2.30;64.50
7014;DHT22;3547;50.774;12.918;2023-04-03T17:43:24;2.30;69.50
7014;DHT22;3547;50.774;12.918;2023-04-03T17:49:05;2.10;66.30
7014;DHT22;3547;50.774;12.918;2023-04-03T17:51:34;2.10;64.50
7014;DHT22;3547;50.774;12.918;2023-04-03T17:54:01;2.10;68.90
7014;DHT22;3547;50.774;12.918;2023-04-03T17:56:27;2.10;71.50
7014;DHT22;3547;50.774;12.918;2023-04-03T17:58:56;2.10;65.10
7014;DHT22;3547;50.774;12.918;2023-04-03T18:01:33;2.10;74.70
7014;DHT22;3547;50.774;12.918;2023-04-03T18:04:03;2.10;70.10
7014;DHT22;3547;50.774;12.918;2023-04-03T18:06:37;2.00;66.70
7014;DHT22;3547;50.774;12.918;2023-04-03T18:09:10;2.00;68.80
7014;DHT22;3547;50.774;12.918;2023-04-03T18:11:42;2.00;68.50
7014;DHT22;3547;50.774;12.918;2023-04-03T18:14:09;2.00;68.10
7014;DHT22;3547;50.774;12.918;2023-04-03T18:16:35;1.90;62.30
7014;DHT22;3547;50.774;12.918;2023-04-03T18:19:01;1.90;70.60
7014;DHT22;3547;50.774;12.918;2023-04-03T18:21:29;1.90;75.30
7014;DHT22;3547;50.774;12.918;2023-04-03T18:23:55;1.90;66.70
7014;DHT22;3547;50.774;12.918;2023-04-03T18:26:25;1.90;63.60